sensor_id;sensor_type;location;lat;lon;timestamp;P1;durP1;ratioP1;P2;durP2;ratioP2
53401;SDS011;39295;45.534;20.034;2023-02-15T00:01:46;61.92;;;35.15;;
53401;SDS011;39295;45.534;20.034;2023-02-15T00:04:13;60.10;;;33.33;;
53401;SDS011;39295;45.534;20.034;2023-02-15T00:09:43;59.00;;;34.10;;
53401;SDS011;39295;45.534;20.034;2023-02-15T00:12:10;62.17;;;35.38;;
53401;SDS011;39295;45.534;20.034;2023-02-15T00:14:36;62.55;;;34.47;;
53401;SDS011;39295;45.534;20.034;2023-02-15T00:17:02;101.35;;;44.42;;
53401;SDS011;39295;45.534;20.034;2023-02-15T00:19:28;167.77;;;59.90;;
53401;SDS011;39295;45.534;20.034;2023-02-15T00:25:12;103.68;;;46.05;;
53401;SDS011;39295;45.534;20.034;2023-02-15T00:27:38;84.30;;;42.00;;
53401;SDS011;39295;45.534;20.034;2023-02-15T00:30:04;79.53;;;41.03;;
53401;SDS011;39295;45.534;20.034;2023-02-15T00:32:31;87.53;;;42.92;;
53401;SDS011;39295;45.534;20.034;2023-02-15T00:34:57;74.78;;;42.05;;
53401;SDS011;39295;45.534;20.034;2023-02-15T00:37:23;71.65;;;40.28;;
53401;SDS011;39295;45.534;20.034;2023-02-15T00:39:49;76.35;;;43.13;;
53401;SDS011;39295;45.534;20.034;2023-02-15T00:42:15;75.43;;;39.33;;
53401;SDS011;39295;45.534;20.034;2023-02-15T00:44:41;76.75;;;39.15;;
53401;SDS011;39295;45.534;20.034;2023-02-15T00:47:07;75.85;;;40.80;;
53401;SDS011;39295;45.534;20.034;2023-02-15T00:49:33;80.78;;;41.50;;
53401;SDS011;39295;45.534;20.034;2023-02-15T00:51:59;76.68;;;40.55;;
53401;SDS011;39295;45.534;20.034;2023-02-15T00:54:25;73.40;;;41.30;;
53401;SDS011;39295;45.534;20.034;2023-02-15T00:56:51;70.03;;;39.25;;
53401;SDS011;39295;45.534;20.034;2023-02-15T00:59:17;78.15;;;40.80;;
53401;SDS011;39295;45.534;20.034;2023-02-15T01:01:43;73.32;;;40.10;;
53401;SDS011;39295;45.534;20.034;2023-02-15T01:04:09;76.07;;;41.35;;
53401;SDS011;39295;45.534;20.034;2023-02-15T01:06:35;72.03;;;42.45;;
53401;SDS011;39295;45.534;20.034;2023-02-15T01:09:01;75.55;;;43.05;;
53401;SDS011;39295;45.534;20.034;2023-02-15T01:11:27;76.55;;;41.00;;
53401;SDS011;39295;45.534;20.034;2023-02-15T01:13:55;73.70;;;40.50;;
53401;SDS011;39295;45.534;20.034;2023-02-15T01:16:22;78.60;;;42.80;;
53401;SDS011;39295;45.534;20.034;2023-02-15T01:18:49;86.85;;;45.75;;
53401;SDS011;39295;45.534;20.034;2023-02-15T01:27:36;72.93;;;41.78;;
53401;SDS011;39295;45.534;20.034;2023-02-15T01:30:02;74.03;;;41.40;;
53401;SDS011;39295;45.534;20.034;2023-02-15T01:32:29;81.93;;;44.25;;
53401;SDS011;39295;45.534;20.034;2023-02-15T01:34:56;78.00;;;42.45;;
53401;SDS011;39295;45.534;20.034;2023-02-15T01:37:22;73.10;;;42.75;;
53401;SDS011;39295;45.534;20.034;2023-02-15T01:39:48;72.38;;;41.97;;
53401;SDS011;39295;45.534;20.034;2023-02-15T01:42:14;76.00;;;43.47;;
53401;SDS011;39295;45.534;20.034;2023-02-15T01:44:48;75.55;;;43.38;;
53401;SDS011;39295;45.534;20.034;2023-02-15T01:47:16;79.47;;;42.75;;
53401;SDS011;39295;45.534;20.034;2023-02-15T01:49:42;76.60;;;41.80;;
53401;SDS011;39295;45.534;20.034;2023-02-15T01:52:09;77.13;;;42.22;;
53401;SDS011;39295;45.534;20.034;2023-02-15T01:54:36;78.95;;;42.83;;
53401;SDS011;39295;45.534;20.034;2023-02-15T01:57:10;82.57;;;42.92;;
53401;SDS011;39295;45.534;20.034;2023-02-15T01:59:39;80.72;;;43.30;;
53401;SDS011;39295;45.534;20.034;2023-02-15T02:02:06;75.45;;;43.20;;
53401;SDS011;39295;45.534;20.034;2023-02-15T02:04:47;78.65;;;43.78;;
53401;SDS011;39295;45.534;20.034;2023-02-15T02:07:33;81.65;;;43.97;;
53401;SDS011;39295;45.534;20.034;2023-02-15T02:10:01;77.60;;;42.15;;
53401;SDS011;39295;45.534;20.034;2023-02-15T02:12:27;76.78;;;42.88;;
53401;SDS011;39295;45.534;20.034;2023-02-15T02:14:53;79.45;;;43.65;;
53401;SDS011;39295;45.534;20.034;2023-02-15T02:17:27;74.97;;;42.80;;
53401;SDS011;39295;45.534;20.034;2023-02-15T02:38:27;71.80;;;40.22;;
53401;SDS011;39295;45.534;20.034;2023-02-15T02:48:15;73.72;;;40.33;;
53401;SDS011;39295;45.534;20.034;2023-02-15T02:50:42;77.25;;;42.10;;
53401;SDS011;39295;45.534;20.034;2023-02-15T02:53:14;77.07;;;41.42;;
53401;SDS011;39295;45.534;20.034;2023-02-15T02:55:42;74.70;;;41.90;;
53401;SDS011;39295;45.534;20.034;2023-02-15T02:58:11;80.57;;;43.65;;
53401;SDS011;39295;45.534;20.034;2023-02-15T03:03:10;72.32;;;40.83;;
53401;SDS011;39295;45.534;20.034;2023-02-15T03:05:40;70.90;;;39.72;;
53401;SDS011;39295;45.534;20.034;2023-02-15T03:08:07;67.45;;;38.10;;
53401;SDS011;39295;45.534;20.034;2023-02-15T03:10:34;72.07;;;40.40;;
53401;SDS011;39295;45.534;20.034;2023-02-15T03:13:01;71.68;;;40.30;;
53401;SDS011;39295;45.534;20.034;2023-02-15T03:15:35;73.25;;;40.92;;
53401;SDS011;39295;45.534;20.034;2023-02-15T03:18:22;72.60;;;39.85;;
53401;SDS011;39295;45.534;20.034;2023-02-15T03:20:48;71.82;;;40.60;;
53401;SDS011;39295;45.534;20.034;2023-02-15T03:29:36;76.10;;;42.80;;
53401;SDS011;39295;45.534;20.034;2023-02-15T03:32:03;78.25;;;44.00;;
53401;SDS011;39295;45.534;20.034;2023-02-15T03:34:30;82.05;;;46.72;;
53401;SDS011;39295;45.534;20.034;2023-02-15T03:36:58;83.20;;;44.80;;
53401;SDS011;39295;45.534;20.034;2023-02-15T03:39:47;79.00;;;43.17;;
53401;SDS011;39295;45.534;20.034;2023-02-15T03:47:43;75.50;;;43.53;;
53401;SDS011;39295;45.534;20.034;2023-02-15T03:50:12;76.10;;;43.28;;
53401;SDS011;39295;45.534;20.034;2023-02-15T03:52:59;78.72;;;44.17;;
53401;SDS011;39295;45.534;20.034;2023-02-15T03:55:25;77.50;;;44.78;;
53401;SDS011;39295;45.534;20.034;2023-02-15T03:57:52;75.78;;;43.10;;
53401;SDS011;39295;45.534;20.034;2023-02-15T04:00:37;77.15;;;44.53;;
53401;SDS011;39295;45.534;20.034;2023-02-15T04:05:56;72.78;;;41.15;;
53401;SDS011;39295;45.534;20.034;2023-02-15T04:08:23;73.88;;;42.47;;
53401;SDS011;39295;45.534;20.034;2023-02-15T04:11:12;76.78;;;42.70;;
53401;SDS011;39295;45.534;20.034;2023-02-15T04:13:38;66.30;;;40.05;;
53401;SDS011;39295;45.534;20.034;2023-02-15T04:16:04;70.15;;;40.08;;
53401;SDS011;39295;45.534;20.034;2023-02-15T04:18:37;71.45;;;40.28;;
53401;SDS011;39295;45.534;20.034;2023-02-15T04:21:31;73.85;;;41.60;;
53401;SDS011;39295;45.534;20.034;2023-02-15T04:24:31;76.60;;;40.30;;
53401;SDS011;39295;45.534;20.034;2023-02-15T04:27:15;68.07;;;38.60;;
53401;SDS011;39295;45.534;20.034;2023-02-15T04:29:41;69.10;;;40.72;;
53401;SDS011;39295;45.534;20.034;2023-02-15T04:32:07;79.72;;;44.15;;
53401;SDS011;39295;45.534;20.034;2023-02-15T04:34:33;71.00;;;42.10;;
53401;SDS011;39295;45.534;20.034;2023-02-15T04:37:00;74.90;;;43.13;;
53401;SDS011;39295;45.534;20.034;2023-02-15T04:39:26;72.68;;;40.60;;
53401;SDS011;39295;45.534;20.034;2023-02-15T04:41:52;65.47;;;38.72;;
53401;SDS011;39295;45.534;20.034;2023-02-15T04:44:18;65.97;;;38.10;;
53401;SDS011;39295;45.534;20.034;2023-02-15T04:46:44;74.28;;;42.33;;
53401;SDS011;39295;45.534;20.034;2023-02-15T04:49:10;84.82;;;45.30;;
53401;SDS011;39295;45.534;20.034;2023-02-15T04:51:36;95.13;;;49.65;;
53401;SDS011;39295;45.534;20.034;2023-02-15T04:56:49;106.35;;;54.60;;
53401;SDS011;39295;45.534;20.034;2023-02-15T04:59:15;90.53;;;48.40;;
53401;SDS011;39295;45.534;20.034;2023-02-15T05:01:41;72.15;;;42.17;;
53401;SDS011;39295;45.534;20.034;2023-02-15T05:04:07;70.22;;;40.75;;
53401;SDS011;39295;45.534;20.034;2023-02-15T05:06:34;70.25;;;40.75;;
53401;SDS011;39295;45.534;20.034;2023-02-15T05:09:00;70.32;;;40.35;;
53401;SDS011;39295;45.534;20.034;2023-02-15T05:11:26;74.15;;;40.92;;
53401;SDS011;39295;45.534;20.034;2023-02-15T05:13:53;77.50;;;42.38;;
53401;SDS011;39295;45.534;20.034;2023-02-15T05:16:24;75.13;;;41.85;;
53401;SDS011;39295;45.534;20.034;2023-02-15T05:19:02;72.35;;;41.05;;
53401;SDS011;39295;45.534;20.034;2023-02-15T05:21:56;71.68;;;40.63;;
53401;SDS011;39295;45.534;20.034;2023-02-15T05:24:52;72.43;;;40.22;;
53401;SDS011;39295;45.534;20.034;2023-02-15T05:27:39;75.18;;;40.05;;
53401;SDS011;39295;45.534;20.034;2023-02-15T05:33:07;82.57;;;44.40;;
53401;SDS011;39295;45.534;20.034;2023-02-15T05:35:41;75.30;;;40.33;;
53401;SDS011;39295;45.534;20.034;2023-02-15T05:41:11;94.60;;;41.17;;
53401;SDS011;39295;45.534;20.034;2023-02-15T05:43:37;116.22;;;47.53;;
53401;SDS011;39295;45.534;20.034;2023-02-15T05:46:04;144.45;;;52.53;;
53401;SDS011;39295;45.534;20.034;2023-02-15T05:48:30;96.07;;;44.47;;
53401;SDS011;39295;45.534;20.034;2023-02-15T05:56:32;82.20;;;39.63;;
53401;SDS011;39295;45.534;20.034;2023-02-15T05:58:58;92.13;;;44.20;;
53401;SDS011;39295;45.534;20.034;2023-02-15T06:01:24;65.43;;;36.70;;
53401;SDS011;39295;45.534;20.034;2023-02-15T06:03:50;71.90;;;41.42;;
53401;SDS011;39295;45.534;20.034;2023-02-15T06:06:17;96.15;;;50.78;;
53401;SDS011;39295;45.534;20.034;2023-02-15T06:11:28;107.88;;;59.83;;
53401;SDS011;39295;45.534;20.034;2023-02-15T06:13:54;94.57;;;53.53;;
53401;SDS011;39295;45.534;20.034;2023-02-15T06:16:20;95.72;;;54.60;;
53401;SDS011;39295;45.534;20.034;2023-02-15T06:18:46;109.75;;;59.78;;
53401;SDS011;39295;45.534;20.034;2023-02-15T06:21:12;121.80;;;64.53;;
53401;SDS011;39295;45.534;20.034;2023-02-15T06:23:39;102.68;;;56.00;;
53401;SDS011;39295;45.534;20.034;2023-02-15T06:26:05;99.68;;;52.42;;
53401;SDS011;39295;45.534;20.034;2023-02-15T06:28:31;106.28;;;56.95;;
53401;SDS011;39295;45.534;20.034;2023-02-15T06:30:57;102.47;;;57.53;;
53401;SDS011;39295;45.534;20.034;2023-02-15T06:33:23;111.15;;;59.38;;
53401;SDS011;39295;45.534;20.034;2023-02-15T06:35:49;114.20;;;61.67;;
53401;SDS011;39295;45.534;20.034;2023-02-15T06:38:16;119.32;;;64.57;;
53401;SDS011;39295;45.534;20.034;2023-02-15T06:40:42;112.80;;;60.25;;
53401;SDS011;39295;45.534;20.034;2023-02-15T06:43:08;105.70;;;54.85;;
53401;SDS011;39295;45.534;20.034;2023-02-15T06:45:34;110.10;;;53.28;;
53401;SDS011;39295;45.534;20.034;2023-02-15T06:48:00;120.88;;;56.40;;
53401;SDS011;39295;45.534;20.034;2023-02-15T06:50:26;139.43;;;64.03;;
53401;SDS011;39295;45.534;20.034;2023-02-15T06:52:56;157.85;;;66.90;;
53401;SDS011;39295;45.534;20.034;2023-02-15T06:58:26;168.57;;;74.60;;
53401;SDS011;39295;45.534;20.034;2023-02-15T07:00:52;129.88;;;62.80;;
53401;SDS011;39295;45.534;20.034;2023-02-15T07:03:18;130.23;;;66.03;;
53401;SDS011;39295;45.534;20.034;2023-02-15T07:05:44;113.18;;;60.17;;
53401;SDS011;39295;45.534;20.034;2023-02-15T07:08:10;164.20;;;101.10;;
53401;SDS011;39295;45.534;20.034;2023-02-15T07:13:40;122.65;;;75.15;;
53401;SDS011;39295;45.534;20.034;2023-02-15T07:16:07;103.47;;;59.35;;
53401;SDS011;39295;45.534;20.034;2023-02-15T07:18:34;107.72;;;59.75;;
53401;SDS011;39295;45.534;20.034;2023-02-15T07:21:00;103.43;;;59.88;;
53401;SDS011;39295;45.534;20.034;2023-02-15T07:23:26;113.93;;;64.03;;
53401;SDS011;39295;45.534;20.034;2023-02-15T07:26:02;113.03;;;62.00;;
53401;SDS011;39295;45.534;20.034;2023-02-15T07:28:33;115.45;;;60.63;;
53401;SDS011;39295;45.534;20.034;2023-02-15T07:31:03;123.75;;;63.20;;
53401;SDS011;39295;45.534;20.034;2023-02-15T07:33:33;104.50;;;54.70;;
53401;SDS011;39295;45.534;20.034;2023-02-15T07:36:00;96.82;;;53.65;;
53401;SDS011;39295;45.534;20.034;2023-02-15T07:38:27;107.07;;;55.60;;
53401;SDS011;39295;45.534;20.034;2023-02-15T07:40:58;174.20;;;79.07;;
53401;SDS011;39295;45.534;20.034;2023-02-15T07:43:25;163.30;;;73.15;;
53401;SDS011;39295;45.534;20.034;2023-02-15T07:45:51;127.25;;;61.17;;
53401;SDS011;39295;45.534;20.034;2023-02-15T07:48:17;116.63;;;57.63;;
53401;SDS011;39295;45.534;20.034;2023-02-15T07:50:43;99.25;;;49.70;;
53401;SDS011;39295;45.534;20.034;2023-02-15T07:53:09;84.07;;;47.58;;
53401;SDS011;39295;45.534;20.034;2023-02-15T07:55:53;91.60;;;50.67;;
53401;SDS011;39295;45.534;20.034;2023-02-15T07:58:20;79.63;;;43.90;;
53401;SDS011;39295;45.534;20.034;2023-02-15T08:01:06;74.30;;;43.50;;
53401;SDS011;39295;45.534;20.034;2023-02-15T08:03:32;67.10;;;40.03;;
53401;SDS011;39295;45.534;20.034;2023-02-15T08:05:58;71.55;;;43.08;;
53401;SDS011;39295;45.534;20.034;2023-02-15T08:08:28;79.22;;;46.47;;
53401;SDS011;39295;45.534;20.034;2023-02-15T08:14:12;70.43;;;42.72;;
53401;SDS011;39295;45.534;20.034;2023-02-15T08:19:09;77.45;;;46.65;;
53401;SDS011;39295;45.534;20.034;2023-02-15T08:21:37;88.25;;;50.83;;
53401;SDS011;39295;45.534;20.034;2023-02-15T08:27:25;76.60;;;45.13;;
53401;SDS011;39295;45.534;20.034;2023-02-15T08:29:52;79.00;;;45.28;;
53401;SDS011;39295;45.534;20.034;2023-02-15T08:32:18;85.80;;;49.75;;
53401;SDS011;39295;45.534;20.034;2023-02-15T08:34:45;76.90;;;45.38;;
53401;SDS011;39295;45.534;20.034;2023-02-15T08:37:14;83.20;;;47.08;;
53401;SDS011;39295;45.534;20.034;2023-02-15T08:45:50;74.82;;;43.75;;
53401;SDS011;39295;45.534;20.034;2023-02-15T08:48:16;78.60;;;43.63;;
53401;SDS011;39295;45.534;20.034;2023-02-15T08:50:43;75.43;;;44.13;;
53401;SDS011;39295;45.534;20.034;2023-02-15T08:53:09;73.80;;;41.95;;
53401;SDS011;39295;45.534;20.034;2023-02-15T08:55:35;81.55;;;47.55;;
53401;SDS011;39295;45.534;20.034;2023-02-15T08:58:20;92.35;;;49.08;;
53401;SDS011;39295;45.534;20.034;2023-02-15T09:23:06;63.78;;;36.88;;
53401;SDS011;39295;45.534;20.034;2023-02-15T09:25:37;65.88;;;40.28;;
53401;SDS011;39295;45.534;20.034;2023-02-15T09:28:03;66.47;;;37.97;;
53401;SDS011;39295;45.534;20.034;2023-02-15T09:30:29;64.70;;;36.90;;
53401;SDS011;39295;45.534;20.034;2023-02-15T09:32:55;59.88;;;34.85;;
53401;SDS011;39295;45.534;20.034;2023-02-15T09:35:21;66.93;;;38.55;;
53401;SDS011;39295;45.534;20.034;2023-02-15T09:37:47;62.47;;;37.08;;
53401;SDS011;39295;45.534;20.034;2023-02-15T09:49:16;62.65;;;35.70;;
53401;SDS011;39295;45.534;20.034;2023-02-15T09:51:53;56.63;;;35.17;;
53401;SDS011;39295;45.534;20.034;2023-02-15T10:06:35;68.22;;;38.72;;
53401;SDS011;39295;45.534;20.034;2023-02-15T10:15:03;61.80;;;37.67;;
53401;SDS011;39295;45.534;20.034;2023-02-15T10:22:38;57.65;;;35.50;;
53401;SDS011;39295;45.534;20.034;2023-02-15T10:27:45;60.00;;;35.00;;
53401;SDS011;39295;45.534;20.034;2023-02-15T10:30:15;49.28;;;31.15;;
53401;SDS011;39295;45.534;20.034;2023-02-15T10:35:26;49.88;;;32.45;;
53401;SDS011;39295;45.534;20.034;2023-02-15T10:46:47;50.97;;;32.05;;
53401;SDS011;39295;45.534;20.034;2023-02-15T10:49:20;48.67;;;30.20;;
53401;SDS011;39295;45.534;20.034;2023-02-15T11:07:36;49.50;;;30.38;;
53401;SDS011;39295;45.534;20.034;2023-02-15T11:13:12;55.53;;;32.85;;
53401;SDS011;39295;45.534;20.034;2023-02-15T11:20:36;50.17;;;31.95;;
53401;SDS011;39295;45.534;20.034;2023-02-15T11:23:07;49.22;;;31.27;;
53401;SDS011;39295;45.534;20.034;2023-02-15T11:28:49;44.17;;;29.00;;
53401;SDS011;39295;45.534;20.034;2023-02-15T11:31:17;45.67;;;30.38;;
53401;SDS011;39295;45.534;20.034;2023-02-15T11:33:49;43.65;;;29.23;;
53401;SDS011;39295;45.534;20.034;2023-02-15T11:36:21;45.67;;;29.92;;
53401;SDS011;39295;45.534;20.034;2023-02-15T11:38:49;46.20;;;29.73;;
53401;SDS011;39295;45.534;20.034;2023-02-15T11:41:21;44.38;;;29.27;;
53401;SDS011;39295;45.534;20.034;2023-02-15T11:46:30;48.85;;;31.15;;
53401;SDS011;39295;45.534;20.034;2023-02-15T11:48:56;46.53;;;29.58;;
53401;SDS011;39295;45.534;20.034;2023-02-15T11:51:23;50.63;;;31.73;;
53401;SDS011;39295;45.534;20.034;2023-02-15T11:53:50;47.88;;;30.20;;
53401;SDS011;39295;45.534;20.034;2023-02-15T11:56:18;44.13;;;29.38;;
53401;SDS011;39295;45.534;20.034;2023-02-15T12:03:50;46.30;;;29.95;;
53401;SDS011;39295;45.534;20.034;2023-02-15T12:06:18;49.72;;;30.95;;
53401;SDS011;39295;45.534;20.034;2023-02-15T12:08:48;42.00;;;28.58;;
53401;SDS011;39295;45.534;20.034;2023-02-15T12:11:15;47.97;;;30.20;;
53401;SDS011;39295;45.534;20.034;2023-02-15T12:13:58;46.30;;;30.33;;
53401;SDS011;39295;45.534;20.034;2023-02-15T12:16:25;51.05;;;31.48;;
53401;SDS011;39295;45.534;20.034;2023-02-15T12:18:52;42.13;;;29.33;;
53401;SDS011;39295;45.534;20.034;2023-02-15T12:21:26;45.50;;;31.00;;
53401;SDS011;39295;45.534;20.034;2023-02-15T12:26:41;47.60;;;30.13;;
53401;SDS011;39295;45.534;20.034;2023-02-15T12:29:15;42.72;;;28.50;;
53401;SDS011;39295;45.534;20.034;2023-02-15T12:31:49;41.58;;;27.50;;
53401;SDS011;39295;45.534;20.034;2023-02-15T12:34:22;41.33;;;26.38;;
53401;SDS011;39295;45.534;20.034;2023-02-15T12:37:11;39.95;;;26.73;;
53401;SDS011;39295;45.534;20.034;2023-02-15T12:39:50;41.00;;;26.75;;
53401;SDS011;39295;45.534;20.034;2023-02-15T12:45:31;46.97;;;29.27;;
53401;SDS011;39295;45.534;20.034;2023-02-15T12:50:42;41.83;;;27.50;;
53401;SDS011;39295;45.534;20.034;2023-02-15T12:58:23;43.30;;;28.00;;
53401;SDS011;39295;45.534;20.034;2023-02-15T13:06:16;44.10;;;27.00;;
53401;SDS011;39295;45.534;20.034;2023-02-15T13:08:50;42.33;;;27.25;;
53401;SDS011;39295;45.534;20.034;2023-02-15T13:17:48;38.60;;;26.10;;
53401;SDS011;39295;45.534;20.034;2023-02-15T13:20:20;43.47;;;27.23;;
53401;SDS011;39295;45.534;20.034;2023-02-15T13:22:49;42.70;;;28.98;;
53401;SDS011;39295;45.534;20.034;2023-02-15T13:25:25;40.58;;;26.30;;
53401;SDS011;39295;45.534;20.034;2023-02-15T13:33:56;40.65;;;26.65;;
53401;SDS011;39295;45.534;20.034;2023-02-15T13:39:00;46.55;;;27.98;;
53401;SDS011;39295;45.534;20.034;2023-02-15T13:52:21;40.17;;;26.33;;
53401;SDS011;39295;45.534;20.034;2023-02-15T14:00:36;42.78;;;27.15;;
53401;SDS011;39295;45.534;20.034;2023-02-15T14:11:08;44.42;;;29.08;;
53401;SDS011;39295;45.534;20.034;2023-02-15T14:19:10;45.53;;;29.73;;
53401;SDS011;39295;45.534;20.034;2023-02-15T14:29:36;56.15;;;36.92;;
53401;SDS011;39295;45.534;20.034;2023-02-15T14:34:52;47.53;;;32.80;;
53401;SDS011;39295;45.534;20.034;2023-02-15T14:45:35;46.85;;;30.00;;
53401;SDS011;39295;45.534;20.034;2023-02-15T14:48:21;40.38;;;27.38;;
53401;SDS011;39295;45.534;20.034;2023-02-15T14:50:49;45.15;;;28.75;;
53401;SDS011;39295;45.534;20.034;2023-02-15T14:53:34;47.10;;;29.40;;
53401;SDS011;39295;45.534;20.034;2023-02-15T14:56:17;42.25;;;28.52;;
53401;SDS011;39295;45.534;20.034;2023-02-15T15:01:27;57.83;;;33.40;;
53401;SDS011;39295;45.534;20.034;2023-02-15T15:03:55;53.35;;;32.53;;
53401;SDS011;39295;45.534;20.034;2023-02-15T15:06:25;57.85;;;34.28;;
53401;SDS011;39295;45.534;20.034;2023-02-15T15:08:52;57.72;;;34.00;;
53401;SDS011;39295;45.534;20.034;2023-02-15T15:17:00;62.63;;;37.33;;
53401;SDS011;39295;45.534;20.034;2023-02-15T15:22:16;48.22;;;30.45;;
53401;SDS011;39295;45.534;20.034;2023-02-15T15:37:59;56.67;;;35.45;;
53401;SDS011;39295;45.534;20.034;2023-02-15T15:40:55;54.38;;;32.70;;
53401;SDS011;39295;45.534;20.034;2023-02-15T15:49:16;48.25;;;30.67;;
53401;SDS011;39295;45.534;20.034;2023-02-15T15:51:44;51.63;;;33.40;;
53401;SDS011;39295;45.534;20.034;2023-02-15T15:54:23;55.63;;;32.58;;
53401;SDS011;39295;45.534;20.034;2023-02-15T15:57:01;52.58;;;33.05;;
53401;SDS011;39295;45.534;20.034;2023-02-15T15:59:29;62.13;;;37.10;;
53401;SDS011;39295;45.534;20.034;2023-02-15T16:01:56;77.03;;;41.25;;
53401;SDS011;39295;45.534;20.034;2023-02-15T16:04:30;65.88;;;38.28;;
53401;SDS011;39295;45.534;20.034;2023-02-15T16:06:57;73.60;;;39.90;;
53401;SDS011;39295;45.534;20.034;2023-02-15T16:09:26;83.47;;;43.47;;
53401;SDS011;39295;45.534;20.034;2023-02-15T16:11:53;90.63;;;45.22;;
53401;SDS011;39295;45.534;20.034;2023-02-15T16:14:28;93.18;;;47.60;;
53401;SDS011;39295;45.534;20.034;2023-02-15T16:16:56;168.27;;;65.97;;
53401;SDS011;39295;45.534;20.034;2023-02-15T16:19:24;192.93;;;71.82;;
53401;SDS011;39295;45.534;20.034;2023-02-15T16:21:51;232.05;;;81.28;;
53401;SDS011;39295;45.534;20.034;2023-02-15T16:24:25;366.20;;;112.75;;
53401;SDS011;39295;45.534;20.034;2023-02-15T16:29:27;430.38;;;125.90;;
53401;SDS011;39295;45.534;20.034;2023-02-15T16:34:38;415.25;;;125.80;;
53401;SDS011;39295;45.534;20.034;2023-02-15T16:37:17;427.67;;;132.65;;
53401;SDS011;39295;45.534;20.034;2023-02-15T16:39:44;449.80;;;139.18;;
53401;SDS011;39295;45.534;20.034;2023-02-15T16:48:19;452.63;;;138.00;;
53401;SDS011;39295;45.534;20.034;2023-02-15T16:50:51;403.83;;;124.63;;
53401;SDS011;39295;45.534;20.034;2023-02-15T16:53:20;357.80;;;117.68;;
53401;SDS011;39295;45.534;20.034;2023-02-15T16:55:48;363.10;;;117.85;;
53401;SDS011;39295;45.534;20.034;2023-02-15T17:01:21;374.83;;;142.65;;
53401;SDS011;39295;45.534;20.034;2023-02-15T17:03:49;364.73;;;133.05;;
53401;SDS011;39295;45.534;20.034;2023-02-15T17:06:26;314.67;;;121.18;;
53401;SDS011;39295;45.534;20.034;2023-02-15T17:08:52;303.17;;;119.55;;
53401;SDS011;39295;45.534;20.034;2023-02-15T17:17:34;266.95;;;114.43;;
53401;SDS011;39295;45.534;20.034;2023-02-15T17:20:01;274.15;;;114.53;;
53401;SDS011;39295;45.534;20.034;2023-02-15T17:22:27;268.23;;;119.20;;
53401;SDS011;39295;45.534;20.034;2023-02-15T17:24:59;295.55;;;127.63;;
53401;SDS011;39295;45.534;20.034;2023-02-15T17:27:26;321.17;;;135.40;;
53401;SDS011;39295;45.534;20.034;2023-02-15T17:30:04;355.85;;;150.48;;
53401;SDS011;39295;45.534;20.034;2023-02-15T17:32:31;362.90;;;150.18;;
53401;SDS011;39295;45.534;20.034;2023-02-15T17:37:27;372.80;;;157.98;;
53401;SDS011;39295;45.534;20.034;2023-02-15T17:39:53;408.98;;;180.82;;
53401;SDS011;39295;45.534;20.034;2023-02-15T17:42:20;418.23;;;188.07;;
53401;SDS011;39295;45.534;20.034;2023-02-15T17:44:46;426.17;;;188.80;;
53401;SDS011;39295;45.534;20.034;2023-02-15T17:47:19;392.17;;;171.35;;
53401;SDS011;39295;45.534;20.034;2023-02-15T17:49:46;402.60;;;177.25;;
53401;SDS011;39295;45.534;20.034;2023-02-15T17:52:14;420.20;;;179.15;;
53401;SDS011;39295;45.534;20.034;2023-02-15T17:54:41;427.42;;;185.65;;
53401;SDS011;39295;45.534;20.034;2023-02-15T17:57:26;464.08;;;200.68;;
53401;SDS011;39295;45.534;20.034;2023-02-15T17:59:53;484.17;;;207.32;;
53401;SDS011;39295;45.534;20.034;2023-02-15T18:02:38;468.35;;;197.82;;
53401;SDS011;39295;45.534;20.034;2023-02-15T18:05:22;386.45;;;161.90;;
53401;SDS011;39295;45.534;20.034;2023-02-15T18:08:09;382.35;;;161.88;;
53401;SDS011;39295;45.534;20.034;2023-02-15T18:10:54;387.58;;;160.75;;
53401;SDS011;39295;45.534;20.034;2023-02-15T18:13:39;386.02;;;162.32;;
53401;SDS011;39295;45.534;20.034;2023-02-15T18:16:05;372.73;;;160.82;;
53401;SDS011;39295;45.534;20.034;2023-02-15T18:18:34;352.38;;;160.45;;
53401;SDS011;39295;45.534;20.034;2023-02-15T18:21:00;360.00;;;158.90;;
53401;SDS011;39295;45.534;20.034;2023-02-15T18:23:26;365.25;;;171.68;;
53401;SDS011;39295;45.534;20.034;2023-02-15T18:25:52;368.08;;;171.48;;
53401;SDS011;39295;45.534;20.034;2023-02-15T18:31:22;349.60;;;170.50;;
53401;SDS011;39295;45.534;20.034;2023-02-15T18:36:25;352.58;;;180.32;;
53401;SDS011;39295;45.534;20.034;2023-02-15T18:38:53;382.35;;;196.32;;
53401;SDS011;39295;45.534;20.034;2023-02-15T18:41:20;358.98;;;192.38;;
53401;SDS011;39295;45.534;20.034;2023-02-15T18:43:47;360.65;;;185.80;;
53401;SDS011;39295;45.534;20.034;2023-02-15T18:46:13;352.42;;;184.25;;
53401;SDS011;39295;45.534;20.034;2023-02-15T18:48:39;358.40;;;185.82;;
53401;SDS011;39295;45.534;20.034;2023-02-15T18:51:11;344.73;;;186.82;;
53401;SDS011;39295;45.534;20.034;2023-02-15T18:53:42;347.27;;;187.07;;
53401;SDS011;39295;45.534;20.034;2023-02-15T18:56:11;338.83;;;187.10;;
53401;SDS011;39295;45.534;20.034;2023-02-15T19:01:42;289.13;;;147.27;;
53401;SDS011;39295;45.534;20.034;2023-02-15T19:04:08;266.15;;;143.82;;
53401;SDS011;39295;45.534;20.034;2023-02-15T19:06:34;209.45;;;117.45;;
53401;SDS011;39295;45.534;20.034;2023-02-15T19:09:00;170.60;;;96.32;;
53401;SDS011;39295;45.534;20.034;2023-02-15T19:11:26;152.40;;;86.32;;
53401;SDS011;39295;45.534;20.034;2023-02-15T19:13:53;149.05;;;83.15;;
53401;SDS011;39295;45.534;20.034;2023-02-15T19:18:45;154.43;;;87.13;;
53401;SDS011;39295;45.534;20.034;2023-02-15T19:21:14;148.23;;;81.88;;
53401;SDS011;39295;45.534;20.034;2023-02-15T19:23:42;149.82;;;83.82;;
53401;SDS011;39295;45.534;20.034;2023-02-15T19:26:09;169.25;;;93.10;;
53401;SDS011;39295;45.534;20.034;2023-02-15T19:31:39;119.57;;;66.43;;
53401;SDS011;39295;45.534;20.034;2023-02-15T19:34:12;100.25;;;59.03;;
53401;SDS011;39295;45.534;20.034;2023-02-15T19:36:39;115.80;;;67.05;;
53401;SDS011;39295;45.534;20.034;2023-02-15T19:39:07;109.63;;;64.38;;
53401;SDS011;39295;45.534;20.034;2023-02-15T19:41:39;103.03;;;59.30;;
53401;SDS011;39295;45.534;20.034;2023-02-15T19:49:56;210.43;;;116.22;;
53401;SDS011;39295;45.534;20.034;2023-02-15T19:52:27;199.52;;;114.20;;
53401;SDS011;39295;45.534;20.034;2023-02-15T19:54:53;154.93;;;92.95;;
53401;SDS011;39295;45.534;20.034;2023-02-15T19:57:19;112.70;;;68.30;;
53401;SDS011;39295;45.534;20.034;2023-02-15T20:02:49;147.93;;;84.75;;
53401;SDS011;39295;45.534;20.034;2023-02-15T20:05:15;158.02;;;87.18;;
53401;SDS011;39295;45.534;20.034;2023-02-15T20:07:41;178.27;;;95.05;;
53401;SDS011;39295;45.534;20.034;2023-02-15T20:10:12;176.63;;;92.75;;
53401;SDS011;39295;45.534;20.034;2023-02-15T20:12:39;173.25;;;89.47;;
53401;SDS011;39295;45.534;20.034;2023-02-15T20:17:41;142.07;;;78.80;;